Terminal Aerodrome Forecast
Issued by NWS

Home | Current Version | Previous Version | Graphics & Text | Print | Product List | Glossary On
Versions: 1 2 3 4 5 6 7 8 9 10 11 12 13 14
000
FTUS42 KMHX 300000 AAA
TAFISO
TAF AMD
KISO 300059Z 3001/3024 07003KT P6SM SCT030
      TEMPO 3001/3002 BKN015
     FM300800 VRB02KT 2SM BR BKN005
     FM301300 15006KT P6SM SCT040
      AMD LTD TO CLD VIS AND WIND=

USA.gov is the U.S. government's official web portal to all federal, state and local government web resources and services.